Time;durP1;ratioP1;P1;durP2;ratioP2;P2;SDS_P1;SDS_P2;PMS_P1;PMS_P2;Temp;Humidity;BMP_temperature;BMP_pressure;BME280_temperature;BME280_humidity;BME280_pressure;Samples;Min_cycle;Max_cycle;Signal;HPM_P1;HPM_P2
2022/08/03 00:01:27;;;;;;;26.77;13.15;;;;;;;17.51;72.20;99195.88;5051503;28;20040;-63
2022/08/03 00:03:53;;;;;;;16.08;11.35;;;;;;;17.51;70.00;99196.66;5051540;28;20041;-63
2022/08/03 00:06:18;;;;;;;22.50;12.82;;;;;;;17.52;70.79;99200.16;5066388;28;20131;-62
2022/08/03 00:08:46;;;;;;;18.83;11.07;;;;;;;17.52;70.01;99194.78;5050498;28;20075;-61
2022/08/03 00:11:12;;;;;;;17.65;11.70;;;;;;;17.51;69.33;99201.25;5033803;28;20037;-61
2022/08/03 00:13:37;;;;;;;13.43;10.98;;;;;;;17.51;69.41;99206.59;5051197;28;20388;-62
2022/08/03 00:16:03;;;;;;;15.20;11.30;;;;;;;17.47;69.39;99204.50;5042004;28;20040;-62
2022/08/03 00:18:29;;;;;;;19.17;11.70;;;;;;;17.46;68.92;99200.19;5071158;28;20044;-62
2022/08/03 00:20:55;;;;;;;24.92;11.70;;;;;;;17.47;69.43;99206.34;5071486;28;20029;-62
2022/08/03 00:23:21;;;;;;;19.90;12.82;;;;;;;17.44;71.41;99205.06;5071108;28;20128;-61
2022/08/03 00:25:46;;;;;;;17.70;12.85;;;;;;;17.36;70.75;99207.59;5066489;28;20454;-62
2022/08/03 00:28:12;;;;;;;15.55;11.40;;;;;;;17.33;70.92;99218.88;5050107;28;20047;-63
2022/08/03 00:30:38;;;;;;;15.93;11.38;;;;;;;17.32;70.74;99219.94;5054907;28;20071;-62
2022/08/03 00:33:04;;;;;;;17.42;11.98;;;;;;;17.32;69.87;99217.25;5053410;28;20541;-62
2022/08/03 00:35:30;;;;;;;19.92;11.90;;;;;;;17.33;69.48;99219.66;5070775;28;20136;-62
2022/08/03 00:37:56;;;;;;;16.35;10.85;;;;;;;17.35;69.99;99224.72;5071255;28;20075;-63
2022/08/03 00:40:22;;;;;;;16.27;11.88;;;;;;;17.32;70.41;99217.25;5071263;28;20045;-63
2022/08/03 00:42:53;;;;;;;17.77;11.77;;;;;;;17.30;70.14;99214.88;5071376;28;20043;-63
2022/08/03 00:45:20;;;;;;;15.07;11.63;;;;;;;17.29;70.71;99215.16;5070676;28;20045;-62
2022/08/03 00:47:46;;;;;;;16.30;11.20;;;;;;;17.25;69.57;99213.03;5070641;28;20530;-62
2022/08/03 00:50:12;;;;;;;13.30;10.60;;;;;;;17.30;69.47;99212.19;5070435;28;20135;-62
2022/08/03 00:52:39;;;;;;;16.65;11.38;;;;;;;17.29;70.10;99220.50;5069554;28;20390;-62
2022/08/03 00:55:05;;;;;;;15.95;12.05;;;;;;;17.28;70.44;99209.00;5053252;28;20132;-62
2022/08/03 00:57:31;;;;;;;14.07;11.43;;;;;;;17.25;70.73;99209.56;5071106;28;20185;-63
2022/08/03 00:59:58;;;;;;;14.40;11.13;;;;;;;17.28;70.27;99216.25;5053864;28;20127;-62
2022/08/03 01:02:25;;;;;;;18.70;12.20;;;;;;;17.27;70.18;99204.75;5074579;28;20047;-62
2022/08/03 01:04:51;;;;;;;16.30;11.50;;;;;;;17.28;69.49;99206.31;5074859;28;20202;-63
2022/08/03 01:07:26;;;;;;;13.55;11.05;;;;;;;17.30;69.96;99201.50;5074763;28;20102;-62
2022/08/03 01:10:24;;;;;;;17.05;12.02;;;;;;;17.30;71.93;99208.72;5047106;28;20057;-62
2022/08/03 01:13:19;;;;;;;16.25;12.88;;;;;;;17.28;72.88;99209.00;5039244;28;20048;-62
2022/08/03 01:16:22;;;;;;;16.75;12.15;;;;;;;17.21;73.20;99195.97;5046564;28;20053;-63
2022/08/03 01:19:28;;;;;;;18.05;12.13;;;;;;;17.12;73.21;99202.22;5064745;28;20076;-62
2022/08/03 01:22:06;;;;;;;16.02;11.98;;;;;;;17.11;72.08;99200.63;5072212;28;20159;-61
2022/08/03 01:24:44;;;;;;;14.73;11.40;;;;;;;17.14;70.99;99200.06;5067360;28;20049;-60
2022/08/03 01:27:34;;;;;;;16.38;12.90;;;;;;;17.15;71.64;99199.00;5054622;28;20086;-62
2022/08/03 01:30:05;;;;;;;14.80;12.63;;;;;;;17.14;71.98;99192.03;5036591;28;20542;-61
2022/08/03 01:32:36;;;;;;;13.77;11.95;;;;;;;17.10;72.60;99199.03;5036748;28;20040;-61
2022/08/03 01:35:30;;;;;;;16.60;12.55;;;;;;;17.05;72.18;99196.41;5055023;28;20040;-62
2022/08/03 01:38:06;;;;;;;18.25;12.77;;;;;;;17.03;71.96;99200.19;5033985;28;20061;-62
2022/08/03 01:40:35;;;;;;;21.33;12.25;;;;;;;16.99;72.82;99207.16;5068627;28;20045;-63
2022/08/03 01:43:02;;;;;;;20.75;12.85;;;;;;;16.93;73.39;99200.28;5055945;28;20105;-62
2022/08/03 01:45:29;;;;;;;17.30;12.88;;;;;;;16.91;72.34;99199.78;5056216;28;20036;-62
2022/08/03 01:47:55;;;;;;;20.15;12.75;;;;;;;16.91;72.74;99210.47;5073638;28;20056;-62
2022/08/03 01:50:27;;;;;;;14.98;11.52;;;;;;;16.88;72.37;99205.66;5056473;28;20045;-61
2022/08/03 01:52:53;;;;;;;17.58;12.90;;;;;;;16.89;72.42;99217.19;5073862;28;20044;-61
2022/08/03 01:55:21;;;;;;;15.80;12.43;;;;;;;16.89;72.25;99215.31;5042486;28;20091;-62
2022/08/03 01:57:48;;;;;;;17.88;13.15;;;;;;;16.90;71.90;99205.41;5036194;28;20041;-62
2022/08/03 02:00:14;;;;;;;15.77;12.95;;;;;;;16.92;71.57;99208.59;5043722;28;20469;-62
2022/08/03 02:02:42;;;;;;;15.43;13.27;;;;;;;16.96;71.48;99206.94;5074127;28;20045;-61
2022/08/03 02:05:09;;;;;;;14.48;12.48;;;;;;;16.97;71.47;99212.03;5055987;28;20059;-62
2022/08/03 02:07:35;;;;;;;16.23;12.45;;;;;;;17.00;71.49;99211.47;5072519;28;20044;-61
2022/08/03 02:10:04;;;;;;;18.20;13.05;;;;;;;17.00;71.68;99214.13;5043883;28;20068;-62
2022/08/03 02:12:31;;;;;;;16.60;11.70;;;;;;;17.03;71.68;99213.56;5035741;28;20127;-61
2022/08/03 02:15:18;;;;;;;18.70;12.60;;;;;;;17.06;71.50;99212.22;5011615;28;20060;-61
2022/08/03 02:17:45;;;;;;;18.02;12.93;;;;;;;17.10;71.04;99207.88;5035521;28;20040;-62
2022/08/03 02:20:11;;;;;;;18.08;12.63;;;;;;;17.43;70.51;99221.41;5036018;28;20045;-62
2022/08/03 02:22:41;;;;;;;20.23;12.15;;;;;;;17.81;69.13;99219.63;5053672;28;20040;-62
2022/08/03 02:25:08;;;;;;;21.15;12.85;;;;;;;18.19;68.22;99219.63;5031684;28;20044;-63
2022/08/03 02:27:35;;;;;;;15.50;11.82;;;;;;;18.54;67.14;99220.94;5055321;28;20045;-62
2022/08/03 02:30:04;;;;;;;16.42;12.32;;;;;;;18.87;66.03;99223.63;5035633;28;20044;-62
2022/08/03 02:32:33;;;;;;;14.93;11.60;;;;;;;19.20;65.38;99226.25;5053275;28;20508;-61
2022/08/03 02:35:00;;;;;;;12.18;10.80;;;;;;;19.45;64.25;99223.06;5035388;28;20084;-62
2022/08/03 02:37:28;;;;;;;16.10;11.48;;;;;;;19.73;63.08;99226.53;5035076;28;20502;-62
2022/08/03 02:39:58;;;;;;;16.50;11.80;;;;;;;19.91;61.66;99227.53;5046098;28;20457;-62
2022/08/03 02:42:25;;;;;;;20.77;11.77;;;;;;;20.12;61.28;99233.22;5055157;28;20127;-62
2022/08/03 02:44:52;;;;;;;15.85;11.68;;;;;;;20.34;60.51;99235.13;5055449;28;20036;-62
2022/08/03 02:47:20;;;;;;;14.80;12.70;;;;;;;20.27;61.55;99236.69;5054547;28;20596;-62
2022/08/03 02:49:47;;;;;;;14.20;12.30;;;;;;;20.20;61.06;99237.06;5015592;28;20137;-61
2022/08/03 02:52:13;;;;;;;16.50;11.57;;;;;;;20.44;60.73;99226.00;5025035;28;20037;-62
2022/08/03 02:54:38;;;;;;;15.48;12.30;;;;;;;20.70;59.81;99239.66;5034570;28;20049;-64
2022/08/03 02:57:06;;;;;;;22.15;14.20;;;;;;;20.79;59.06;99237.03;5054722;28;20040;-63
2022/08/03 02:59:33;;;;;;;16.02;11.90;;;;;;;20.86;58.83;99232.81;5054714;28;20040;-63
2022/08/03 03:01:59;;;;;;;16.48;12.02;;;;;;;20.91;58.20;99239.16;5073129;28;20386;-64
2022/08/03 03:04:26;;;;;;;18.27;12.07;;;;;;;20.89;58.00;99241.38;5054533;28;20187;-64
2022/08/03 03:06:53;;;;;;;21.02;12.20;;;;;;;20.81;58.54;99235.63;5024199;28;20037;-63
2022/08/03 03:09:19;;;;;;;17.33;12.25;;;;;;;20.90;58.30;99246.44;5012258;28;20036;-63
2022/08/03 03:11:45;;;;;;;18.45;12.55;;;;;;;21.05;57.58;99248.72;5072931;28;20044;-64
2022/08/03 03:14:12;;;;;;;19.40;12.32;;;;;;;21.18;56.86;99244.38;5051213;28;20051;-64
2022/08/03 03:16:39;;;;;;;18.55;12.13;;;;;;;21.17;56.30;99245.47;5052789;28;20041;-64
2022/08/03 03:19:06;;;;;;;14.20;12.05;;;;;;;21.13;56.64;99247.19;5018273;28;20049;-64
2022/08/03 03:21:32;;;;;;;25.00;12.85;;;;;;;21.25;56.49;99244.69;5033914;28;20513;-63
2022/08/03 03:23:58;;;;;;;18.65;12.40;;;;;;;21.43;56.53;99245.59;5056964;28;20044;-63
2022/08/03 03:26:24;;;;;;;17.10;12.27;;;;;;;21.58;55.74;99241.66;5054169;28;20101;-63
2022/08/03 03:28:49;;;;;;;20.58;11.70;;;;;;;21.72;55.07;99244.25;5072127;28;20040;-64
2022/08/03 03:31:15;;;;;;;14.88;11.30;;;;;;;21.88;54.15;99241.88;5054292;28;20032;-65
2022/08/03 03:33:41;;;;;;;18.58;12.10;;;;;;;21.91;54.08;99246.63;5071815;28;20509;-63
2022/08/03 03:36:07;;;;;;;16.98;12.07;;;;;;;21.80;54.71;99242.69;5054686;28;20040;-62
2022/08/03 03:38:33;;;;;;;17.73;12.82;;;;;;;21.74;54.38;99245.50;5069479;28;20048;-63
2022/08/03 03:40:59;;;;;;;23.35;12.05;;;;;;;21.74;54.80;99242.03;5034068;28;20083;-63
2022/08/03 03:43:25;;;;;;;15.98;11.90;;;;;;;21.74;54.80;99245.50;5051845;28;20068;-63
2022/08/03 03:45:52;;;;;;;24.48;12.27;;;;;;;21.73;55.23;99254.69;5052068;28;20509;-63
2022/08/03 03:48:18;;;;;;;19.10;12.35;;;;;;;21.60;55.06;99241.34;5050472;28;20059;-63
2022/08/03 03:50:44;;;;;;;15.90;11.98;;;;;;;21.54;55.17;99246.09;5051922;28;20041;-63
2022/08/03 03:53:11;;;;;;;21.48;11.70;;;;;;;21.53;55.38;99250.72;5052236;28;20451;-63
2022/08/03 03:55:37;;;;;;;18.30;11.48;;;;;;;21.56;55.13;99254.69;5049717;28;20049;-62
2022/08/03 03:58:03;;;;;;;24.42;11.80;;;;;;;21.61;55.45;99256.44;5051573;28;20047;-62
2022/08/03 04:00:29;;;;;;;20.17;11.75;;;;;;;21.68;55.43;99254.06;5017107;28;20045;-62
2022/08/03 04:02:55;;;;;;;20.45;12.57;;;;;;;21.73;55.53;99257.41;5058715;28;20041;-62
2022/08/03 04:11:17;;;;;;;18.00;13.43;;;;;;;21.98;54.29;99265.88;5071752;28;20049;-63
2022/08/03 04:13:52;;;;;;;21.45;12.30;;;;;;;22.06;54.02;99264.25;5071294;28;20181;-63
2022/08/03 04:16:25;;;;;;;18.45;11.73;;;;;;;21.98;54.61;99263.97;5052154;28;20106;-62
2022/08/03 04:19:02;;;;;;;20.38;12.57;;;;;;;21.99;54.35;99270.13;5031425;28;20111;-63
2022/08/03 04:21:29;;;;;;;18.02;11.35;;;;;;;22.12;53.65;99266.50;5030315;28;20041;-63
2022/08/03 04:23:58;;;;;;;20.25;12.23;;;;;;;22.25;53.33;99269.41;5031587;28;20181;-62
2022/08/03 04:26:26;;;;;;;19.52;11.43;;;;;;;22.31;53.62;99263.53;5041917;28;20120;-64
2022/08/03 04:28:53;;;;;;;18.95;11.82;;;;;;;22.32;53.31;99265.09;5051412;28;20056;-62
2022/08/03 04:31:23;;;;;;;14.43;11.13;;;;;;;22.37;53.39;99264.16;5033122;28;20107;-61
2022/08/03 04:33:51;;;;;;;18.73;11.20;;;;;;;22.43;52.81;99268.28;5052272;28;20048;-65
2022/08/03 04:36:20;;;;;;;17.33;11.45;;;;;;;22.59;53.05;99277.50;5053079;28;20044;-63
2022/08/03 04:38:53;;;;;;;18.67;11.23;;;;;;;22.84;52.33;99275.06;5071397;28;20091;-63
2022/08/03 04:41:20;;;;;;;17.85;11.55;;;;;;;23.03;51.73;99278.22;5070538;28;20082;-63
2022/08/03 04:43:46;;;;;;;17.75;11.65;;;;;;;23.29;51.04;99270.00;5053212;28;20093;-64
2022/08/03 04:46:12;;;;;;;21.08;12.25;;;;;;;23.53;50.96;99282.97;5045237;28;20045;-63
2022/08/03 04:48:38;;;;;;;21.35;12.93;;;;;;;23.67;50.35;99282.72;5049458;28;20061;-63
2022/08/03 04:51:05;;;;;;;15.82;11.90;;;;;;;23.72;50.59;99281.78;5044243;28;20520;-63
2022/08/03 04:53:30;;;;;;;17.60;12.38;;;;;;;23.74;49.53;99268.72;5032909;28;20043;-62
2022/08/03 04:56:04;;;;;;;16.77;10.80;;;;;;;23.90;49.87;99277.03;5034113;28;20050;-63
2022/08/03 04:58:29;;;;;;;16.35;12.57;;;;;;;23.96;49.58;99283.84;5050589;28;20059;-64
2022/08/03 05:00:55;;;;;;;14.35;10.95;;;;;;;23.93;49.22;99282.59;5050940;28;20041;-64
2022/08/03 05:03:21;;;;;;;15.82;10.98;;;;;;;23.89;49.93;99289.00;5050011;28;20140;-62
2022/08/03 05:05:46;;;;;;;15.75;11.35;;;;;;;23.70;50.08;99284.78;5070853;28;20525;-62
2022/08/03 05:08:12;;;;;;;19.58;11.95;;;;;;;23.65;50.04;99284.97;5071031;28;20404;-62
2022/08/03 05:10:38;;;;;;;15.20;10.20;;;;;;;23.72;50.46;99287.19;5070476;28;20045;-63
2022/08/03 05:13:03;;;;;;;15.25;10.68;;;;;;;23.75;50.53;99281.91;5071178;28;20044;-63
2022/08/03 05:15:29;;;;;;;14.00;10.60;;;;;;;23.80;50.27;99287.13;5060841;28;20080;-63
2022/08/03 05:17:55;;;;;;;16.40;10.43;;;;;;;23.94;50.79;99280.66;5069539;28;20044;-63
2022/08/03 05:20:20;;;;;;;15.38;10.57;;;;;;;24.00;50.01;99290.19;5063017;28;20053;-62
2022/08/03 05:22:46;;;;;;;17.15;9.80;;;;;;;23.92;50.07;99288.34;5065482;28;20033;-62
2022/08/03 05:25:12;;;;;;;14.18;10.27;;;;;;;23.97;50.49;99290.84;5069602;28;20048;-62
2022/08/03 05:27:38;;;;;;;15.23;10.48;;;;;;;23.94;50.13;99294.19;5050113;28;20406;-62
2022/08/03 05:30:04;;;;;;;12.38;9.43;;;;;;;23.86;50.43;99286.94;5050824;28;20457;-62
2022/08/03 05:32:30;;;;;;;16.50;10.93;;;;;;;23.85;51.02;99290.75;5050332;28;20045;-62
2022/08/03 05:34:55;;;;;;;15.13;10.35;;;;;;;23.73;51.72;99292.25;5033080;28;20411;-63
2022/08/03 05:37:21;;;;;;;15.15;10.38;;;;;;;23.76;51.84;99296.22;5024484;28;20414;-62
2022/08/03 05:39:47;;;;;;;10.68;9.52;;;;;;;23.75;52.86;99295.44;5048292;28;20090;-63
2022/08/03 05:42:14;;;;;;;15.70;9.35;;;;;;;23.78;53.21;99297.50;5050575;28;20075;-63
2022/08/03 05:44:40;;;;;;;10.88;9.43;;;;;;;23.75;53.47;99297.34;5052015;28;20053;-63
2022/08/03 05:47:10;;;;;;;11.82;9.70;;;;;;;23.87;52.93;99297.44;5054706;28;20191;-63
2022/08/03 05:49:38;;;;;;;12.18;9.10;;;;;;;23.94;52.32;99299.63;4987137;28;20041;-63
2022/08/03 05:52:04;;;;;;;9.10;8.20;;;;;;;23.93;52.09;99300.75;5036352;28;20041;-64
2022/08/03 05:54:29;;;;;;;13.85;9.43;;;;;;;23.92;52.28;99304.59;5054365;28;20080;-64
2022/08/03 05:56:55;;;;;;;13.90;8.70;;;;;;;23.98;51.84;99303.28;5072832;28;20490;-63
2022/08/03 05:59:20;;;;;;;11.13;8.38;;;;;;;24.03;50.95;99300.34;5055874;28;20402;-63
2022/08/03 06:01:46;;;;;;;11.88;8.70;;;;;;;24.11;51.73;99302.22;5074429;28;20497;-63
2022/08/03 06:04:12;;;;;;;11.73;9.27;;;;;;;24.05;52.10;99310.88;5053669;28;20055;-64
2022/08/03 06:06:38;;;;;;;12.98;9.02;;;;;;;24.13;51.72;99312.72;5073911;28;20151;-63
2022/08/03 06:09:04;;;;;;;13.30;8.32;;;;;;;24.20;51.32;99299.44;5073452;28;20044;-64
2022/08/03 06:11:29;;;;;;;11.32;8.45;;;;;;;24.29;50.86;99302.88;5054715;28;20041;-63
2022/08/03 06:13:55;;;;;;;9.77;8.07;;;;;;;24.34;51.42;99302.69;5053431;28;20072;-65
2022/08/03 06:16:21;;;;;;;11.25;8.60;;;;;;;24.38;51.58;99311.72;5053647;28;20037;-64
2022/08/03 06:18:46;;;;;;;14.77;8.60;;;;;;;24.39;50.50;99307.13;5036647;28;20036;-63
2022/08/03 06:21:12;;;;;;;13.07;8.25;;;;;;;24.45;50.05;99298.47;5069441;28;20393;-64
2022/08/03 06:23:37;;;;;;;9.43;7.47;;;;;;;24.50;49.55;99304.81;5071275;28;20463;-64
2022/08/03 06:26:03;;;;;;;8.70;7.43;;;;;;;24.54;49.84;99305.75;5069471;28;20033;-64
2022/08/03 06:28:29;;;;;;;11.70;7.95;;;;;;;24.64;49.67;99300.69;5056846;28;20132;-62
2022/08/03 06:30:54;;;;;;;10.27;6.95;;;;;;;24.81;49.49;99307.88;5013300;28;20049;-63
2022/08/03 06:33:20;;;;;;;11.18;7.18;;;;;;;24.92;49.35;99306.34;5012005;28;20158;-64
2022/08/03 06:35:46;;;;;;;8.65;6.72;;;;;;;24.96;48.86;99303.72;5056012;28;20527;-63
2022/08/03 06:38:11;;;;;;;8.65;7.38;;;;;;;25.05;48.52;99309.84;5070746;28;20123;-65
2022/08/03 06:40:40;;;;;;;8.82;7.00;;;;;;;25.08;47.96;99305.69;5051364;28;20052;-63
2022/08/03 06:43:06;;;;;;;7.85;5.90;;;;;;;25.17;47.58;99313.75;5068182;28;20096;-63
2022/08/03 06:45:32;;;;;;;10.60;6.25;;;;;;;25.26;47.46;99317.16;5050265;28;20072;-63
2022/08/03 06:48:06;;;;;;;10.32;6.88;;;;;;;25.34;47.30;99308.91;5048867;28;20052;-64
2022/08/03 06:50:33;;;;;;;8.48;6.00;;;;;;;25.44;46.64;99307.69;5048839;28;20425;-64
2022/08/03 06:52:59;;;;;;;9.73;6.28;;;;;;;25.46;46.72;99305.41;5048775;28;20490;-63
2022/08/03 06:55:25;;;;;;;10.50;6.15;;;;;;;25.48;46.63;99313.25;5033073;28;20079;-63
2022/08/03 06:57:51;;;;;;;9.45;5.95;;;;;;;25.55;46.39;99313.47;5015096;28;20084;-63
2022/08/03 07:00:17;;;;;;;9.65;6.50;;;;;;;25.58;45.96;99312.78;5051396;28;20071;-62
2022/08/03 07:02:44;;;;;;;7.93;5.90;;;;;;;25.57;46.09;99319.34;5052002;28;20059;-62
2022/08/03 07:05:09;;;;;;;13.18;5.40;;;;;;;25.55;43.79;99314.25;5055961;28;20052;-63
2022/08/03 07:07:35;;;;;;;7.60;4.38;;;;;;;25.58;43.17;99316.28;5069351;28;20094;-63
2022/08/03 07:10:02;;;;;;;9.25;5.35;;;;;;;25.67;43.08;99315.38;5069609;28;20040;-62
2022/08/03 07:12:29;;;;;;;6.32;5.25;;;;;;;25.77;42.83;99317.66;5069138;28;20036;-64
2022/08/03 07:14:56;;;;;;;5.20;4.70;;;;;;;25.78;41.40;99322.72;5053514;28;20044;-63
2022/08/03 07:17:22;;;;;;;10.73;4.78;;;;;;;25.80;40.85;99316.97;5048153;28;20140;-62
2022/08/03 07:19:48;;;;;;;6.03;4.43;;;;;;;25.83;40.74;99321.75;5047011;28;20037;-63
2022/08/03 07:22:14;;;;;;;5.30;4.28;;;;;;;25.88;38.21;99323.44;5037615;28;20052;-62
2022/08/03 07:24:40;;;;;;;7.70;4.38;;;;;;;25.94;38.17;99320.16;5051393;28;20127;-63
2022/08/03 07:27:07;;;;;;;5.75;4.10;;;;;;;25.97;37.91;99318.66;5051608;28;20492;-63
2022/08/03 07:29:36;;;;;;;6.63;4.15;;;;;;;25.99;36.90;99319.13;5060132;28;20049;-63
2022/08/03 07:32:03;;;;;;;4.90;3.97;;;;;;;25.99;36.76;99313.69;5048733;28;20039;-65
2022/08/03 07:34:30;;;;;;;6.20;4.05;;;;;;;25.97;35.56;99315.94;5028444;28;20291;-61
2022/08/03 07:36:57;;;;;;;7.22;4.65;;;;;;;26.04;37.39;99324.31;5029958;28;20045;-63
2022/08/03 07:39:23;;;;;;;11.82;4.75;;;;;;;26.13;38.15;99319.53;5048478;28;20099;-61
2022/08/03 07:41:51;;;;;;;9.70;4.60;;;;;;;26.32;38.17;99320.84;5046669;28;20033;-63
2022/08/03 07:44:18;;;;;;;11.57;4.77;;;;;;;26.47;37.14;99310.06;5047516;28;20049;-63
2022/08/03 07:46:44;;;;;;;6.55;4.30;;;;;;;26.57;35.50;99311.53;5028627;28;20303;-62
2022/08/03 07:49:09;;;;;;;9.35;4.13;;;;;;;26.42;34.82;99318.47;5012683;28;20336;-63
2022/08/03 07:51:35;;;;;;;8.55;3.80;;;;;;;26.32;36.43;99316.22;5029845;28;20129;-62
2022/08/03 07:54:01;;;;;;;7.75;4.78;;;;;;;26.12;37.39;99323.41;5047991;28;20037;-63
2022/08/03 07:56:27;;;;;;;8.57;5.18;;;;;;;26.16;38.43;99312.63;5012059;28;20529;-62
2022/08/03 07:58:53;;;;;;;11.70;5.53;;;;;;;26.29;37.68;99328.56;5027937;28;20438;-62
2022/08/03 08:01:19;;;;;;;6.97;5.00;;;;;;;26.37;36.91;99326.84;5045579;28;20052;-62
2022/08/03 08:03:45;;;;;;;8.07;5.00;;;;;;;26.42;37.48;99318.47;5046145;28;20041;-62
2022/08/03 08:06:11;;;;;;;5.30;4.50;;;;;;;26.49;37.21;99324.09;5047664;28;20605;-63
2022/08/03 08:08:38;;;;;;;10.65;5.97;;;;;;;26.61;36.45;99317.84;5047357;28;20079;-62
2022/08/03 08:11:04;;;;;;;6.60;4.97;;;;;;;26.65;36.58;99315.22;5047567;28;20045;-62
2022/08/03 08:13:30;;;;;;;9.43;4.70;;;;;;;26.67;36.98;99331.97;5029788;28;20052;-63
2022/08/03 08:15:55;;;;;;;9.18;5.43;;;;;;;26.59;37.33;99338.34;5046670;28;20048;-64
2022/08/03 08:18:22;;;;;;;8.10;5.05;;;;;;;26.60;37.13;99329.06;5047150;28;20068;-62
2022/08/03 08:20:48;;;;;;;9.18;5.20;;;;;;;26.52;37.25;99333.50;5047030;28;20037;-63
2022/08/03 08:23:14;;;;;;;7.03;4.53;;;;;;;26.60;36.22;99329.84;5048399;28;20060;-62
2022/08/03 08:25:40;;;;;;;9.80;5.05;;;;;;;26.69;35.70;99321.56;5029132;28;20041;-62
2022/08/03 08:28:05;;;;;;;6.35;4.93;;;;;;;26.83;36.46;99321.16;5031322;28;20407;-62
2022/08/03 08:30:32;;;;;;;6.38;4.63;;;;;;;27.00;35.55;99325.47;5047405;28;20132;-63
2022/08/03 08:32:58;;;;;;;5.10;4.60;;;;;;;26.99;34.82;99334.78;5048266;28;20045;-62
2022/08/03 08:35:24;;;;;;;5.03;4.53;;;;;;;26.94;34.71;99327.66;5049802;28;20056;-61
2022/08/03 08:37:49;;;;;;;5.03;4.53;;;;;;;26.87;34.83;99324.75;5049086;28;20053;-62
2022/08/03 08:40:15;;;;;;;5.65;4.10;;;;;;;26.85;34.68;99318.88;5045706;28;20045;-63
2022/08/03 08:42:42;;;;;;;7.13;5.05;;;;;;;26.89;34.94;99325.19;5031866;28;20044;-62
2022/08/03 08:45:10;;;;;;;5.30;4.72;;;;;;;26.84;35.10;99320.78;5033029;28;20046;-64
2022/08/03 08:47:38;;;;;;;5.57;4.38;;;;;;;26.89;35.19;99325.19;5029147;28;20732;-62
2022/08/03 08:50:06;;;;;;;6.63;4.68;;;;;;;26.95;34.86;99308.28;5042526;28;20064;-64
2022/08/03 08:52:33;;;;;;;5.47;4.20;;;;;;;26.96;35.31;99312.56;5066235;28;20033;-63
2022/08/03 08:55:05;;;;;;;11.93;4.78;;;;;;;27.11;35.08;99315.66;5045356;28;20401;-62
2022/08/03 08:57:34;;;;;;;7.47;5.15;;;;;;;27.28;34.61;99320.00;5067271;28;20044;-63
2022/08/03 09:00:00;;;;;;;8.85;4.97;;;;;;;27.29;34.13;99305.25;5065430;28;20044;-63
2022/08/03 09:02:29;;;;;;;5.22;4.72;;;;;;;27.34;34.59;99319.38;5050480;28;20045;-63
2022/08/03 09:04:55;;;;;;;8.70;5.00;;;;;;;27.49;34.19;99317.03;5068314;28;20041;-62
2022/08/03 09:07:20;;;;;;;6.43;4.78;;;;;;;27.50;33.22;99311.25;5051686;28;20044;-64
2022/08/03 09:09:47;;;;;;;6.72;4.95;;;;;;;27.60;33.48;99318.84;5068975;28;20699;-63
2022/08/03 09:12:13;;;;;;;7.95;4.80;;;;;;;27.63;32.91;99318.16;5051315;28;20143;-64
2022/08/03 09:14:39;;;;;;;8.80;5.07;;;;;;;27.60;33.63;99321.56;5065295;28;20624;-63
2022/08/03 09:17:05;;;;;;;9.60;5.05;;;;;;;27.49;33.74;99320.53;5064194;28;20041;-63
2022/08/03 09:19:31;;;;;;;12.63;5.30;;;;;;;27.45;33.27;99329.78;5068057;28;20391;-65
2022/08/03 09:22:13;;;;;;;10.18;5.03;;;;;;;27.43;33.56;99323.88;5065140;28;20156;-63
2022/08/03 09:24:57;;;;;;;5.82;4.65;;;;;;;27.42;33.36;99327.75;5069096;28;20525;-64
2022/08/03 09:27:23;;;;;;;7.13;4.65;;;;;;;27.46;33.62;99326.69;5070936;28;20155;-63
2022/08/03 09:29:53;;;;;;;6.75;5.03;;;;;;;27.49;33.92;99330.63;5054155;28;20064;-63
2022/08/03 09:32:19;;;;;;;;;;;;;;;27.53;33.70;99329.59;5055672;28;20135;-62
2022/08/03 09:34:47;;;;;;;5.53;4.78;;;;;;;27.60;33.11;99328.97;5052992;28;20039;-64
2022/08/03 09:37:14;;;;;;;11.98;5.25;;;;;;;27.66;33.88;99334.94;5035017;28;20091;-63
2022/08/03 09:39:40;;;;;;;7.22;5.35;;;;;;;27.69;33.44;99328.78;5032207;28;20044;-64
2022/08/03 09:42:07;;;;;;;5.25;4.72;;;;;;;27.68;33.50;99327.19;5050635;28;20037;-64
2022/08/03 09:44:35;;;;;;;6.82;4.70;;;;;;;27.87;33.38;99324.56;5058619;28;20052;-63
2022/08/03 09:47:01;;;;;;;11.65;5.47;;;;;;;27.93;33.66;99328.59;5005212;28;20294;-63
2022/08/03 09:49:27;;;;;;;8.13;5.80;;;;;;;27.94;33.34;99321.19;5031143;28;20056;-64
2022/08/03 09:51:53;;;;;;;11.02;5.72;;;;;;;27.99;33.19;99319.00;5039004;28;20045;-63
2022/08/03 09:54:30;;;;;;;7.57;5.70;;;;;;;28.02;33.18;99314.75;5011620;28;20048;-63
2022/08/03 09:57:06;;;;;;;14.60;5.90;;;;;;;27.97;33.49;99320.47;5031804;28;20030;-62
2022/08/03 09:59:37;;;;;;;5.78;5.25;;;;;;;27.78;33.47;99318.47;4973774;28;20061;-63
2022/08/03 10:02:03;;;;;;;8.50;5.20;;;;;;;27.71;34.20;99321.84;5031291;28;20033;-62
2022/08/03 10:04:29;;;;;;;6.35;5.40;;;;;;;27.72;34.16;99315.25;5032354;28;20072;-62
2022/08/03 10:07:05;;;;;;;10.20;5.45;;;;;;;27.81;33.94;99313.13;5031059;28;20510;-63
2022/08/03 10:09:31;;;;;;;8.57;5.53;;;;;;;27.89;33.68;99324.22;5024003;28;20409;-63
2022/08/03 10:11:58;;;;;;;9.60;6.10;;;;;;;27.93;33.81;99322.34;5042599;28;20131;-63
2022/08/03 10:14:30;;;;;;;8.00;5.43;;;;;;;27.97;33.26;99321.28;5030790;28;20041;-61
2022/08/03 10:16:56;;;;;;;11.07;5.78;;;;;;;27.99;33.38;99315.47;5033293;28;20533;-63
2022/08/03 10:19:22;;;;;;;6.38;5.30;;;;;;;27.97;33.42;99323.22;5051550;28;20049;-62
2022/08/03 10:21:51;;;;;;;6.43;5.70;;;;;;;28.04;33.73;99324.16;5043765;28;20116;-64
2022/08/03 10:24:20;;;;;;;8.50;5.37;;;;;;;28.10;32.86;99326.63;5013356;28;20446;-63
2022/08/03 10:26:47;;;;;;;6.63;5.22;;;;;;;28.08;33.43;99321.50;5013480;28;20518;-62
2022/08/03 10:29:19;;;;;;;7.70;5.82;;;;;;;28.07;33.62;99314.50;5035189;28;20087;-62
2022/08/03 10:31:45;;;;;;;5.95;5.30;;;;;;;28.25;33.80;99325.78;5012771;28;20042;-63
2022/08/03 10:34:18;;;;;;;8.20;5.55;;;;;;;28.26;33.20;99321.88;5010365;28;20053;-61
2022/08/03 10:36:44;;;;;;;7.38;5.22;;;;;;;28.28;33.34;99325.84;5032583;28;20384;-64
2022/08/03 10:39:12;;;;;;;6.93;5.60;;;;;;;28.19;32.69;99321.75;5031971;28;20573;-63
2022/08/03 10:41:41;;;;;;;7.25;5.35;;;;;;;28.12;33.33;99325.13;5031038;28;20041;-63
2022/08/03 10:44:13;;;;;;;7.10;5.80;;;;;;;28.07;33.04;99328.13;5041491;28;20081;-62
2022/08/03 10:46:39;;;;;;;6.45;5.63;;;;;;;28.14;32.83;99330.19;5034636;28;20033;-62
2022/08/03 10:49:06;;;;;;;7.32;5.97;;;;;;;28.17;32.63;99330.28;5052774;28;20052;-62
2022/08/03 10:51:32;;;;;;;10.52;6.05;;;;;;;28.16;32.58;99328.69;5051472;28;20044;-64
2022/08/03 10:53:58;;;;;;;7.05;6.30;;;;;;;28.06;32.18;99334.69;5027374;28;20044;-63
2022/08/03 10:59:18;;;;;;;10.25;5.93;;;;;;;27.81;32.77;99331.44;5047457;28;20120;-62
2022/08/03 11:01:50;;;;;;;6.93;5.78;;;;;;;27.75;33.53;99333.59;5031185;28;20562;-62
2022/08/03 11:04:19;;;;;;;6.57;5.43;;;;;;;27.64;33.57;99325.16;5043884;28;20326;-63
2022/08/03 11:06:45;;;;;;;7.55;5.88;;;;;;;27.55;33.96;99329.22;5049967;28;20481;-61
2022/08/03 11:09:11;;;;;;;6.22;5.68;;;;;;;27.53;33.82;99335.03;5055120;28;20044;-62
2022/08/03 11:11:38;;;;;;;19.05;5.93;;;;;;;27.46;34.21;99332.13;5054925;28;20059;-62
2022/08/03 11:14:11;;;;;;;11.48;5.75;;;;;;;27.44;33.91;99334.41;5047242;28;20044;-60
2022/08/03 11:17:00;;;;;;;9.90;6.22;;;;;;;27.50;34.66;99329.47;5013108;28;20033;-62
2022/08/03 11:19:47;;;;;;;9.30;6.03;;;;;;;27.54;35.06;99330.38;5051028;28;20053;-63
2022/08/03 11:22:14;;;;;;;7.97;6.00;;;;;;;27.48;35.11;99331.78;5032154;28;20045;-65
2022/08/03 11:24:40;;;;;;;7.63;5.97;;;;;;;27.45;35.57;99329.78;5049672;28;20135;-62
2022/08/03 11:27:15;;;;;;;6.70;5.80;;;;;;;27.35;35.65;99326.41;5057554;28;20135;-62
2022/08/03 11:30:09;;;;;;;7.05;5.68;;;;;;;27.26;35.51;99325.00;5051894;28;20039;-62
2022/08/03 11:32:46;;;;;;;9.10;5.88;;;;;;;27.12;35.23;99323.50;5042459;28;20498;-63
2022/08/03 11:35:20;;;;;;;7.88;6.85;;;;;;;27.12;35.57;99325.41;5049440;28;20406;-62
2022/08/03 11:37:55;;;;;;;12.07;5.15;;;;;;;27.16;36.11;99318.16;5049266;28;20049;-63